createdAt,value
2022-11-06T00:01:50.062Z,15.60
2022-11-06T00:03:53.104Z,15.63
2022-11-06T00:06:13.702Z,20.40
2022-11-06T00:08:16.519Z,18.70
2022-11-06T00:12:21.072Z,15.43
2022-11-06T00:14:22.898Z,16.70
2022-11-06T00:16:24.747Z,16.48
2022-11-06T00:18:27.671Z,16.98
2022-11-06T00:20:29.531Z,16.08
2022-11-06T00:22:37.553Z,15.63
2022-11-06T00:24:39.751Z,16.48
2022-11-06T00:26:42.705Z,16.60
2022-11-06T00:28:44.983Z,16.80
2022-11-06T00:30:47.316Z,16.00
2022-11-06T00:32:49.146Z,29.23
2022-11-06T00:34:51.080Z,17.63
2022-11-06T00:36:53.266Z,15.98
2022-11-06T00:38:56.131Z,16.25
2022-11-06T00:41:01.687Z,16.25
2022-11-06T00:43:03.925Z,16.08
2022-11-06T00:45:06.266Z,15.02
2022-11-06T00:47:08.692Z,20.85
2022-11-06T00:49:10.899Z,17.10
2022-11-06T00:51:15.755Z,16.67
2022-11-06T00:53:17.631Z,16.50
2022-11-06T00:55:19.858Z,16.38
2022-11-06T00:57:21.860Z,16.42
2022-11-06T00:59:23.729Z,17.42
2022-11-06T01:01:31.151Z,16.33
2022-11-06T01:03:33.236Z,26.42
2022-11-06T01:05:35.067Z,18.08
2022-11-06T01:07:37.399Z,17.02
2022-11-06T01:09:39.296Z,18.13
2022-11-06T01:12:10.915Z,18.23
2022-11-06T01:14:09.180Z,17.13
2022-11-06T01:16:14.760Z,18.63
2022-11-06T01:18:16.604Z,16.88
2022-11-06T01:20:18.791Z,17.52
2022-11-06T01:22:20.596Z,17.48
2022-11-06T01:24:27.992Z,16.95
2022-11-06T01:26:38.261Z,16.88
2022-11-06T01:28:41.340Z,18.00
2022-11-06T01:30:43.291Z,18.20
2022-11-06T01:32:45.650Z,16.90
2022-11-06T01:34:49.630Z,18.05
2022-11-06T01:36:51.542Z,17.45
2022-11-06T01:38:56.679Z,17.63
2022-11-06T01:40:58.640Z,15.85
2022-11-06T01:43:00.475Z,19.55
2022-11-06T01:45:26.885Z,18.50
2022-11-06T01:47:29.789Z,16.95
2022-11-06T01:49:36.630Z,17.58
2022-11-06T01:51:44.584Z,17.88
2022-11-06T01:53:46.548Z,17.13
2022-11-06T01:55:56.268Z,16.65
2022-11-06T01:58:01.721Z,17.13
2022-11-06T02:00:05.624Z,17.98
2022-11-06T02:02:07.824Z,20.92
2022-11-06T02:04:21.457Z,17.98
2022-11-06T02:08:26.178Z,18.00
2022-11-06T02:10:29.687Z,17.95
2022-11-06T02:12:50.162Z,17.60
2022-11-06T02:15:40.110Z,17.15
2022-11-06T02:17:58.251Z,16.50
2022-11-06T02:20:31.698Z,16.80
2022-11-06T02:22:51.794Z,17.95
2022-11-06T02:25:19.234Z,17.65
2022-11-06T02:27:27.181Z,16.85
2022-11-06T02:29:31.585Z,16.70
2022-11-06T02:31:37.605Z,17.55
2022-11-06T02:33:48.917Z,17.48
2022-11-06T02:36:00.547Z,18.10
2022-11-06T02:38:09.994Z,16.55
2022-11-06T02:40:15.205Z,16.20
2022-11-06T02:42:20.046Z,17.30
2022-11-06T02:44:27.142Z,16.63
2022-11-06T02:46:35.386Z,16.42
2022-11-06T02:48:49.146Z,17.02
2022-11-06T02:50:54.850Z,16.02
2022-11-06T02:53:06.262Z,16.50
2022-11-06T02:55:17.986Z,16.38
2022-11-06T02:57:21.646Z,16.35
2022-11-06T02:59:43.526Z,16.92
2022-11-06T03:01:45.407Z,16.73
2022-11-06T03:03:53.448Z,16.33
2022-11-06T03:06:00.834Z,17.63
2022-11-06T03:08:26.525Z,15.95
2022-11-06T03:10:34.110Z,16.42
2022-11-06T03:12:48.009Z,16.83
2022-11-06T03:14:57.332Z,16.20
2022-11-06T03:17:05.437Z,15.55
2022-11-06T03:19:25.558Z,16.40
2022-11-06T03:21:35.273Z,16.27
2022-11-06T03:23:49.178Z,15.35
2022-11-06T03:26:12.670Z,15.93
2022-11-06T03:28:31.988Z,16.38
2022-11-06T03:30:39.168Z,16.98
2022-11-06T03:32:53.958Z,17.35
2022-11-06T03:35:07.133Z,17.25
2022-11-06T03:37:17.260Z,17.10
2022-11-06T03:39:25.746Z,16.48
2022-11-06T03:41:52.714Z,16.90
2022-11-06T03:43:57.974Z,17.27
2022-11-06T03:46:04.346Z,17.38
2022-11-06T03:48:22.417Z,17.70
2022-11-06T03:50:39.037Z,18.25
2022-11-06T03:52:47.007Z,17.52
2022-11-06T03:55:00.687Z,18.88
2022-11-06T03:57:09.520Z,18.13
2022-11-06T03:59:14.504Z,17.30
2022-11-06T04:01:21.268Z,17.75
2022-11-06T04:03:30.780Z,17.00
2022-11-06T04:05:38.295Z,19.20
2022-11-06T04:08:04.345Z,20.23
2022-11-06T04:10:29.797Z,20.00
2022-11-06T04:12:52.641Z,19.30
2022-11-06T04:14:58.457Z,20.63
2022-11-06T04:17:05.046Z,20.85
2022-11-06T04:19:14.871Z,21.85
2022-11-06T04:21:22.523Z,20.05
2022-11-06T04:24:14.489Z,20.45
2022-11-06T04:26:39.298Z,21.33
2022-11-06T04:29:01.437Z,20.63
2022-11-06T04:31:25.373Z,20.65
2022-11-06T04:33:37.830Z,20.23
2022-11-06T04:35:48.392Z,19.77
2022-11-06T04:37:58.935Z,19.92
2022-11-06T04:40:26.060Z,20.13
2022-11-06T04:43:08.169Z,20.83
2022-11-06T04:45:23.989Z,21.45
2022-11-06T04:47:26.415Z,22.38
2022-11-06T04:49:32.941Z,22.45
2022-11-06T04:51:38.093Z,23.73
2022-11-06T04:53:40.782Z,23.50
2022-11-06T04:57:49.474Z,21.45
2022-11-06T04:59:51.366Z,21.42
2022-11-06T05:01:54.120Z,22.77
2022-11-06T05:03:56.173Z,21.10
2022-11-06T05:05:57.978Z,20.50
2022-11-06T05:08:00.249Z,20.58
2022-11-06T05:10:02.271Z,21.17
2022-11-06T05:12:04.204Z,20.57
2022-11-06T05:14:06.691Z,22.08
2022-11-06T05:16:08.586Z,19.40
2022-11-06T05:18:10.989Z,22.55
2022-11-06T05:22:33.970Z,21.27
2022-11-06T05:24:35.856Z,20.55
2022-11-06T05:26:38.178Z,20.33
2022-11-06T05:28:40.190Z,20.10
2022-11-06T05:30:42.059Z,21.25
2022-11-06T05:32:44.287Z,22.02
2022-11-06T05:34:46.955Z,20.27
2022-11-06T05:36:48.819Z,21.67
2022-11-06T05:38:51.522Z,19.13
2022-11-06T05:40:53.371Z,21.63
2022-11-06T05:42:55.242Z,21.50
2022-11-06T05:44:57.406Z,20.10
2022-11-06T05:46:59.294Z,18.45
2022-11-06T05:49:01.187Z,18.80
2022-11-06T05:51:08.049Z,19.33
2022-11-06T05:53:10.181Z,18.80
2022-11-06T05:55:15.108Z,22.13
2022-11-06T05:57:17.757Z,17.02
2022-11-06T05:59:19.610Z,17.33
2022-11-06T06:01:21.525Z,18.08
2022-11-06T06:03:25.135Z,18.23
2022-11-06T06:05:26.983Z,17.48
2022-11-06T06:07:29.259Z,18.67
2022-11-06T06:09:31.593Z,18.52
2022-11-06T06:11:33.602Z,20.50
2022-11-06T06:13:37.490Z,18.58
2022-11-06T06:15:40.841Z,19.25
2022-11-06T06:19:44.527Z,17.73
2022-11-06T06:21:46.693Z,22.08
2022-11-06T06:23:48.591Z,21.23
2022-11-06T06:25:50.666Z,18.50
2022-11-06T06:27:54.665Z,18.30
2022-11-06T06:29:56.585Z,18.30
2022-11-06T06:31:58.423Z,18.77
2022-11-06T06:34:00.649Z,19.67
2022-11-06T06:36:06.276Z,20.60
2022-11-06T06:38:08.239Z,18.35
2022-11-06T06:40:11.162Z,18.98
2022-11-06T06:42:13.021Z,19.67
2022-11-06T06:44:15.614Z,18.35
2022-11-06T06:48:19.802Z,18.95
2022-11-06T06:50:21.665Z,19.23
2022-11-06T06:52:23.929Z,18.65
2022-11-06T06:54:25.745Z,19.42
2022-11-06T06:56:27.601Z,20.42
2022-11-06T06:58:30.530Z,22.63
2022-11-06T07:00:32.341Z,20.42
2022-11-06T07:02:34.235Z,21.13
2022-11-06T07:04:36.494Z,20.95
2022-11-06T07:06:38.317Z,20.10
2022-11-06T07:08:40.233Z,19.60
2022-11-06T07:10:42.507Z,20.45
2022-11-06T07:12:44.386Z,20.70
2022-11-06T07:14:46.397Z,19.42
2022-11-06T07:16:53.446Z,26.50
2022-11-06T07:18:56.322Z,19.40
2022-11-06T07:20:58.320Z,18.83
2022-11-06T07:23:05.630Z,19.75
2022-11-06T07:25:07.896Z,17.90
2022-11-06T07:27:09.838Z,18.05
2022-11-06T07:29:12.108Z,16.83
2022-11-06T07:31:14.020Z,16.25
2022-11-06T07:33:15.920Z,17.48
2022-11-06T07:35:18.113Z,16.95
2022-11-06T07:37:19.963Z,15.70
2022-11-06T07:39:21.815Z,16.77
2022-11-06T07:41:24.083Z,16.58
2022-11-06T07:43:26.874Z,16.75
2022-11-06T07:45:28.734Z,16.85
2022-11-06T07:47:31.150Z,15.77
2022-11-06T07:49:32.997Z,26.00
2022-11-06T07:51:34.983Z,18.60
2022-11-06T07:53:38.218Z,17.15
2022-11-06T07:55:42.394Z,17.88
2022-11-06T07:57:44.563Z,16.98
2022-11-06T07:59:46.733Z,15.70
2022-11-06T08:01:48.784Z,15.38
2022-11-06T08:03:50.892Z,15.52
2022-11-06T08:05:53.055Z,15.52
2022-11-06T08:07:58.053Z,15.45
2022-11-06T08:09:59.930Z,15.77
2022-11-06T08:12:02.613Z,15.40
2022-11-06T08:14:04.476Z,16.63
2022-11-06T08:16:08.786Z,16.70
2022-11-06T08:18:12.046Z,17.30
2022-11-06T08:20:14.266Z,16.67
2022-11-06T08:22:16.104Z,16.85
2022-11-06T08:24:21.883Z,16.10
2022-11-06T08:26:24.286Z,16.15
2022-11-06T08:28:26.885Z,15.98
2022-11-06T08:32:31.280Z,15.63
2022-11-06T08:34:35.450Z,15.15
2022-11-06T08:36:50.183Z,31.40
2022-11-06T08:38:52.128Z,17.55
2022-11-06T08:40:54.135Z,18.15
2022-11-06T08:43:04.375Z,19.80
2022-11-06T08:45:06.795Z,17.70
2022-11-06T08:47:09.148Z,16.38
2022-11-06T08:49:11.453Z,16.85
2022-11-06T08:51:13.260Z,16.08
2022-11-06T08:53:15.641Z,17.27
2022-11-06T08:57:19.827Z,17.90
2022-11-06T08:59:21.739Z,17.00
2022-11-06T09:01:24.358Z,16.98
2022-11-06T09:03:26.325Z,16.50
2022-11-06T09:05:29.740Z,16.40
2022-11-06T09:07:31.905Z,17.73
2022-11-06T09:09:33.864Z,18.05
2022-11-06T09:11:35.695Z,17.75
2022-11-06T09:13:38.105Z,17.30
2022-11-06T09:15:40.239Z,16.97
2022-11-06T09:17:50.166Z,18.75
2022-11-06T09:19:52.796Z,24.48
2022-11-06T09:21:55.161Z,18.05
2022-11-06T09:23:57.095Z,17.80
2022-11-06T09:25:59.338Z,16.98
2022-11-06T09:28:01.337Z,17.77
2022-11-06T09:30:03.299Z,16.60
2022-11-06T09:32:05.499Z,16.55
2022-11-06T09:34:07.394Z,17.50
2022-11-06T09:36:09.469Z,17.00
2022-11-06T09:38:13.030Z,17.55
2022-11-06T09:40:27.030Z,15.57
2022-11-06T09:42:38.923Z,14.80
2022-11-06T09:44:59.687Z,14.65
2022-11-06T09:47:12.448Z,15.88
2022-11-06T09:49:34.189Z,15.75
2022-11-06T09:51:48.122Z,16.45
2022-11-06T09:54:03.119Z,15.80
2022-11-06T09:56:06.621Z,16.20
2022-11-06T09:58:16.577Z,17.17
2022-11-06T10:00:19.203Z,16.27
2022-11-06T10:02:42.071Z,19.73
2022-11-06T10:04:58.844Z,18.10
2022-11-06T10:07:00.973Z,17.73
2022-11-06T10:09:06.764Z,16.67
2022-11-06T10:11:14.920Z,16.83
2022-11-06T10:13:37.877Z,17.45
2022-11-06T10:15:56.590Z,17.08
2022-11-06T10:17:58.772Z,17.45
2022-11-06T10:20:26.481Z,18.75
2022-11-06T10:22:48.100Z,21.65
2022-11-06T10:24:56.465Z,18.30
2022-11-06T10:26:58.531Z,17.08
2022-11-06T10:29:19.695Z,16.00
2022-11-06T10:31:43.757Z,17.33
2022-11-06T10:34:10.685Z,18.33
2022-11-06T10:36:25.995Z,16.52
2022-11-06T10:38:32.942Z,15.63
2022-11-06T10:40:35.544Z,14.98
2022-11-06T10:42:39.913Z,16.00
2022-11-06T10:44:50.139Z,16.48
2022-11-06T10:46:59.184Z,19.02
2022-11-06T10:49:05.009Z,15.95
2022-11-06T10:51:16.622Z,17.52
2022-11-06T10:53:40.392Z,17.10
2022-11-06T10:56:21.081Z,18.58
2022-11-06T10:58:29.173Z,18.67
2022-11-06T11:00:32.275Z,18.92
2022-11-06T11:02:39.442Z,18.63
2022-11-06T11:04:44.273Z,18.65
2022-11-06T11:06:46.180Z,18.38
2022-11-06T11:08:50.322Z,19.02
2022-11-06T11:11:04.407Z,18.85
2022-11-06T11:13:20.610Z,18.83
2022-11-06T11:15:28.241Z,19.65
2022-11-06T11:17:30.506Z,19.40
2022-11-06T11:19:38.301Z,19.33
2022-11-06T11:21:52.935Z,21.63
2022-11-06T11:24:05.713Z,29.90
2022-11-06T11:26:29.032Z,24.67
2022-11-06T11:28:34.383Z,20.38
2022-11-06T11:30:37.170Z,19.63
2022-11-06T11:32:39.013Z,20.23
2022-11-06T11:34:51.420Z,19.67
2022-11-06T11:37:08.160Z,19.63
2022-11-06T11:39:10.427Z,20.02
2022-11-06T11:41:21.583Z,18.67
2022-11-06T11:43:30.674Z,20.08
2022-11-06T11:45:32.587Z,22.63
2022-11-06T11:47:36.000Z,17.60
2022-11-06T11:49:38.178Z,17.50
2022-11-06T11:51:47.102Z,18.65
2022-11-06T11:53:49.208Z,18.67
2022-11-06T11:55:53.123Z,20.33
2022-11-06T11:57:59.283Z,20.52
2022-11-06T12:00:06.399Z,21.88
2022-11-06T12:02:36.417Z,21.48
2022-11-06T12:04:43.738Z,21.42
2022-11-06T12:06:55.460Z,21.70
2022-11-06T12:08:57.723Z,18.05
2022-11-06T12:11:04.582Z,20.17
2022-11-06T12:13:21.025Z,19.63
2022-11-06T12:15:38.141Z,23.00
2022-11-06T12:17:41.982Z,22.73
2022-11-06T12:19:51.927Z,22.27
2022-11-06T12:22:00.750Z,24.02
2022-11-06T12:24:23.378Z,22.92
2022-11-06T12:26:34.456Z,25.77
2022-11-06T12:28:39.922Z,22.58
2022-11-06T12:30:44.133Z,23.30
2022-11-06T12:32:49.248Z,22.30
2022-11-06T12:35:10.063Z,22.50
2022-11-06T12:37:40.478Z,24.20
2022-11-06T12:39:47.640Z,20.65
2022-11-06T12:41:50.809Z,22.30
2022-11-06T12:43:53.884Z,17.92
2022-11-06T12:48:30.599Z,18.17
2022-11-06T12:50:47.102Z,17.27
2022-11-06T12:53:10.235Z,17.48
2022-11-06T12:55:14.672Z,15.15
2022-11-06T12:57:28.408Z,15.73
2022-11-06T12:59:43.016Z,15.90
2022-11-06T13:02:02.521Z,16.08
2022-11-06T13:04:07.526Z,15.48
2022-11-06T13:06:33.141Z,16.52
2022-11-06T13:09:17.848Z,18.48
2022-11-06T13:11:41.575Z,14.13
2022-11-06T13:14:00.069Z,13.48
2022-11-06T13:16:07.643Z,13.90
2022-11-06T13:18:15.917Z,13.52
2022-11-06T13:20:32.807Z,13.90
2022-11-06T13:22:42.571Z,12.20
2022-11-06T13:25:12.821Z,12.18
2022-11-06T13:27:19.425Z,9.75
2022-11-06T13:29:24.462Z,10.07
2022-11-06T13:31:39.215Z,9.07
2022-11-06T13:33:49.327Z,10.23
2022-11-06T13:35:51.764Z,10.50
2022-11-06T13:37:56.223Z,9.82
2022-11-06T13:40:10.482Z,9.93
2022-11-06T13:42:27.029Z,9.23
2022-11-06T13:44:30.463Z,9.35
2022-11-06T13:46:35.250Z,9.88
2022-11-06T13:49:02.149Z,9.68
2022-11-06T13:51:14.586Z,9.35
2022-11-06T13:53:37.477Z,9.15
2022-11-06T13:56:01.228Z,9.63
2022-11-06T13:58:16.229Z,8.73
2022-11-06T14:00:20.609Z,7.35
2022-11-06T14:02:34.687Z,7.03
2022-11-06T14:05:14.706Z,6.57
2022-11-06T14:07:17.954Z,7.20
2022-11-06T14:09:23.274Z,7.90
2022-11-06T14:11:29.101Z,8.10
2022-11-06T14:13:36.551Z,8.32
2022-11-06T14:15:41.811Z,7.82
2022-11-06T14:17:58.636Z,8.32
2022-11-06T14:20:06.042Z,9.52
2022-11-06T14:22:23.654Z,9.60
2022-11-06T14:24:36.163Z,9.82
2022-11-06T14:26:46.790Z,8.88
2022-11-06T14:28:48.770Z,8.52
2022-11-06T14:31:11.704Z,8.77
2022-11-06T14:33:44.831Z,9.20
2022-11-06T14:37:49.079Z,28.40
2022-11-06T14:39:57.012Z,16.02
2022-11-06T14:41:59.657Z,12.95
2022-11-06T14:46:21.927Z,10.43
2022-11-06T14:48:28.158Z,9.60
2022-11-06T14:50:40.651Z,13.02
2022-11-06T14:52:47.615Z,13.02
2022-11-06T14:55:05.568Z,14.70
2022-11-06T14:57:15.399Z,15.13
2022-11-06T14:59:41.985Z,14.45
2022-11-06T15:02:19.606Z,15.05
2022-11-06T15:04:24.913Z,15.82
2022-11-06T15:06:29.780Z,15.48
2022-11-06T15:08:57.843Z,15.32
2022-11-06T15:11:00.128Z,15.45
2022-11-06T15:13:12.374Z,16.23
2022-11-06T15:15:20.121Z,16.05
2022-11-06T15:17:24.059Z,15.73
2022-11-06T15:19:37.843Z,16.05
2022-11-06T15:21:45.679Z,15.85
2022-11-06T15:24:06.125Z,15.68
2022-11-06T15:26:27.467Z,16.17
2022-11-06T15:28:38.206Z,15.52
2022-11-06T15:30:49.782Z,15.80
2022-11-06T15:32:54.192Z,15.73
2022-11-06T15:35:06.226Z,15.57
2022-11-06T15:37:14.191Z,15.77
2022-11-06T15:39:56.016Z,16.00
2022-11-06T15:42:01.450Z,15.88
2022-11-06T15:44:05.011Z,16.25
2022-11-06T15:46:12.876Z,17.45
2022-11-06T15:48:23.963Z,16.92
2022-11-06T15:50:35.069Z,18.55
2022-11-06T15:52:37.115Z,18.30
2022-11-06T15:54:44.125Z,16.55
2022-11-06T15:56:48.981Z,17.20
2022-11-06T15:59:14.730Z,18.05
2022-11-06T16:01:32.200Z,16.95
2022-11-06T16:03:52.133Z,17.40
2022-11-06T16:05:58.750Z,16.48
2022-11-06T16:08:01.307Z,18.10
2022-11-06T16:10:04.474Z,16.88
2022-11-06T16:12:06.679Z,18.77
2022-11-06T16:14:12.878Z,18.08
2022-11-06T16:16:38.599Z,17.77
2022-11-06T16:18:44.231Z,17.30
2022-11-06T16:20:51.257Z,17.15
2022-11-06T16:22:53.578Z,18.50
2022-11-06T16:25:04.862Z,19.35
2022-11-06T16:27:07.239Z,20.42
2022-11-06T16:29:20.081Z,20.73
2022-11-06T16:31:28.161Z,21.63
2022-11-06T16:33:30.226Z,22.25
2022-11-06T16:35:36.931Z,23.58
2022-11-06T16:37:39.706Z,22.05
2022-11-06T16:39:52.609Z,22.15
2022-11-06T16:41:57.989Z,23.08
2022-11-06T16:44:43.810Z,24.77
2022-11-06T16:47:10.161Z,23.30
2022-11-06T16:49:33.650Z,23.35
2022-11-06T16:51:35.812Z,21.38
2022-11-06T16:53:57.292Z,19.90
2022-11-06T16:56:06.029Z,21.60
2022-11-06T16:58:16.627Z,21.15
2022-11-06T17:00:21.537Z,20.95
2022-11-06T17:02:27.529Z,20.73
2022-11-06T17:04:30.039Z,21.83
2022-11-06T17:06:34.446Z,20.67
2022-11-06T17:08:40.041Z,21.27
2022-11-06T17:10:43.392Z,20.35
2022-11-06T17:12:45.318Z,20.67
2022-11-06T17:14:48.543Z,20.83
2022-11-06T17:16:57.815Z,20.73
2022-11-06T17:19:00.039Z,20.33
2022-11-06T17:21:11.661Z,18.77
2022-11-06T17:23:16.230Z,19.38
2022-11-06T17:25:18.504Z,19.95
2022-11-06T17:27:20.901Z,20.42
2022-11-06T17:29:22.767Z,18.48
2022-11-06T17:31:25.692Z,18.63
2022-11-06T17:33:28.066Z,17.67
2022-11-06T17:35:29.979Z,17.38
2022-11-06T17:37:31.782Z,18.60
2022-11-06T17:39:34.267Z,17.00
2022-11-06T17:41:36.100Z,18.47
2022-11-06T17:43:38.152Z,18.40
2022-11-06T17:45:44.469Z,16.77
2022-11-06T17:47:46.412Z,16.13
2022-11-06T17:49:48.878Z,17.15
2022-11-06T17:51:53.593Z,18.67
2022-11-06T17:53:55.776Z,16.95
2022-11-06T17:55:57.625Z,17.45
2022-11-06T17:57:59.828Z,17.38
2022-11-06T18:00:01.717Z,17.77
2022-11-06T18:02:04.044Z,17.20
2022-11-06T18:04:09.529Z,18.40
2022-11-06T18:06:13.022Z,17.88
2022-11-06T18:08:15.582Z,16.90
2022-11-06T18:10:18.355Z,16.73
2022-11-06T18:12:22.598Z,17.57
2022-11-06T18:14:26.587Z,17.88
2022-11-06T18:16:32.376Z,17.95
2022-11-06T18:18:35.130Z,18.42
2022-11-06T18:20:37.026Z,17.08
2022-11-06T18:22:39.594Z,18.20
2022-11-06T18:24:41.785Z,17.40
2022-11-06T18:26:44.610Z,18.10
2022-11-06T18:28:47.730Z,17.83
2022-11-06T18:30:50.259Z,15.88
2022-11-06T18:32:52.250Z,17.15
2022-11-06T18:34:54.703Z,16.45
2022-11-06T18:36:56.569Z,16.30
2022-11-06T18:38:58.736Z,17.17
2022-11-06T18:41:12.546Z,17.35
2022-11-06T18:43:14.731Z,18.13
2022-11-06T18:45:16.574Z,18.48
2022-11-06T18:47:19.133Z,18.55
2022-11-06T18:49:20.985Z,17.90
2022-11-06T18:51:34.476Z,17.15
2022-11-06T18:53:39.241Z,16.40
2022-11-06T18:55:46.042Z,17.60
2022-11-06T18:57:47.919Z,17.42
2022-11-06T18:59:50.249Z,17.13
2022-11-06T19:01:53.201Z,16.67
2022-11-06T19:03:55.732Z,19.05
2022-11-06T19:05:58.062Z,18.48
2022-11-06T19:08:00.846Z,17.67
2022-11-06T19:10:02.993Z,17.40
2022-11-06T19:12:05.670Z,17.58
2022-11-06T19:14:08.179Z,17.30
2022-11-06T19:16:12.338Z,16.58
2022-11-06T19:18:15.770Z,16.52
2022-11-06T19:20:17.808Z,16.73
2022-11-06T19:22:19.773Z,17.38
2022-11-06T19:24:22.166Z,15.85
2022-11-06T19:26:30.484Z,14.75
2022-11-06T19:28:35.861Z,16.58
2022-11-06T19:30:38.451Z,16.30
2022-11-06T19:32:40.901Z,16.30
2022-11-06T19:34:42.876Z,14.18
2022-11-06T19:36:45.067Z,14.20
2022-11-06T19:38:46.920Z,13.23
2022-11-06T19:41:00.306Z,13.50
2022-11-06T19:43:04.026Z,13.10
2022-11-06T19:45:06.318Z,13.23
2022-11-06T19:47:08.241Z,13.38
2022-11-06T19:49:10.639Z,15.20
2022-11-06T19:51:15.652Z,22.75
2022-11-06T19:53:21.825Z,26.85
2022-11-06T19:55:24.976Z,16.10
2022-11-06T19:57:30.549Z,15.18
2022-11-06T19:59:32.582Z,20.33
2022-11-06T20:01:35.009Z,19.13
2022-11-06T20:03:37.329Z,16.20
2022-11-06T20:05:40.460Z,16.65
2022-11-06T20:07:42.747Z,16.08
2022-11-06T20:09:44.765Z,18.02
2022-11-06T20:11:46.591Z,18.30
2022-11-06T20:13:48.799Z,19.30
2022-11-06T20:15:50.619Z,28.20
2022-11-06T20:17:52.651Z,24.85
2022-11-06T20:19:54.856Z,20.77
2022-11-06T20:21:56.740Z,19.38
2022-11-06T20:23:58.574Z,21.13
2022-11-06T20:26:01.378Z,21.63
2022-11-06T20:28:03.933Z,22.13
2022-11-06T20:30:07.460Z,21.33
2022-11-06T20:32:09.862Z,21.13
2022-11-06T20:34:12.058Z,21.55
2022-11-06T20:36:17.173Z,22.40
2022-11-06T20:38:19.372Z,23.50
2022-11-06T20:40:21.303Z,22.95
2022-11-06T20:42:23.353Z,22.27
2022-11-06T20:44:25.519Z,24.00
2022-11-06T20:46:27.654Z,22.48
2022-11-06T20:48:30.617Z,22.42
2022-11-06T20:50:33.351Z,22.95
2022-11-06T20:52:35.606Z,24.08
2022-11-06T20:54:40.079Z,25.05
2022-11-06T20:56:45.093Z,23.40
2022-11-06T20:58:47.649Z,25.02
2022-11-06T21:00:49.686Z,24.30
2022-11-06T21:02:55.207Z,24.52
2022-11-06T21:04:59.603Z,25.00
2022-11-06T21:07:01.497Z,24.92
2022-11-06T21:09:04.927Z,28.27
2022-11-06T21:11:08.639Z,27.92
2022-11-06T21:13:10.635Z,28.40
2022-11-06T21:15:13.060Z,28.73
2022-11-06T21:17:15.808Z,28.00
2022-11-06T21:19:17.649Z,29.98
2022-11-06T21:21:23.751Z,28.55
2022-11-06T21:23:25.575Z,28.10
2022-11-06T21:25:28.025Z,28.33
2022-11-06T21:27:30.804Z,28.35
2022-11-06T21:29:32.653Z,29.23
2022-11-06T21:31:35.043Z,28.98
2022-11-06T21:35:43.540Z,29.20
2022-11-06T21:37:45.415Z,27.97
2022-11-06T21:39:48.066Z,28.92
2022-11-06T21:41:49.951Z,31.30
2022-11-06T21:43:52.061Z,31.50
2022-11-06T21:45:54.314Z,30.50
2022-11-06T21:47:56.190Z,31.08
2022-11-06T21:49:58.102Z,31.08
2022-11-06T21:52:23.882Z,33.13
2022-11-06T21:54:47.217Z,33.55
2022-11-06T21:56:50.538Z,34.35
2022-11-06T21:58:54.800Z,34.50
2022-11-06T22:00:56.775Z,35.67
2022-11-06T22:02:58.770Z,35.55
2022-11-06T22:05:01.169Z,33.30
2022-11-06T22:07:03.032Z,35.83
2022-11-06T22:09:04.963Z,34.17
2022-11-06T22:11:14.922Z,34.47
2022-11-06T22:13:16.921Z,34.17
2022-11-06T22:15:19.188Z,37.17
2022-11-06T22:17:21.474Z,34.03
2022-11-06T22:19:23.516Z,33.28
2022-11-06T22:21:27.996Z,33.60
2022-11-06T22:23:30.305Z,32.97
2022-11-06T22:25:32.337Z,33.50
2022-11-06T22:27:39.656Z,34.17
2022-11-06T22:29:43.429Z,33.63
2022-11-06T22:31:45.332Z,33.10
2022-11-06T22:33:52.372Z,33.25
2022-11-06T22:36:07.590Z,33.13
2022-11-06T22:38:11.021Z,33.60
2022-11-06T22:40:12.921Z,32.53
2022-11-06T22:42:15.444Z,34.20
2022-11-06T22:44:17.476Z,35.67
2022-11-06T22:46:23.270Z,33.83
2022-11-06T22:48:25.923Z,34.65
2022-11-06T22:50:27.778Z,34.40
2022-11-06T22:52:29.627Z,33.83
2022-11-06T22:54:31.868Z,33.47
2022-11-06T22:56:34.088Z,33.38
2022-11-06T22:58:35.992Z,35.72
2022-11-06T23:00:38.228Z,36.25
2022-11-06T23:02:40.102Z,35.65
2022-11-06T23:04:42.062Z,35.25
2022-11-06T23:06:45.315Z,34.58
2022-11-06T23:08:47.434Z,36.38
2022-11-06T23:10:49.410Z,39.13
2022-11-06T23:12:51.851Z,38.72
2022-11-06T23:14:53.771Z,39.33
2022-11-06T23:16:58.942Z,38.75
2022-11-06T23:19:01.122Z,38.83
2022-11-06T23:21:10.389Z,38.53
2022-11-06T23:23:12.394Z,39.42
2022-11-06T23:25:14.897Z,41.80
2022-11-06T23:27:16.749Z,41.90
2022-11-06T23:29:18.723Z,40.55
2022-11-06T23:31:21.335Z,41.95
2022-11-06T23:33:23.150Z,43.38
2022-11-06T23:35:29.384Z,43.50
2022-11-06T23:37:33.420Z,42.47
2022-11-06T23:39:35.254Z,45.93
2022-11-06T23:41:42.994Z,45.75
2022-11-06T23:43:49.270Z,46.03
2022-11-06T23:45:51.609Z,46.88
2022-11-06T23:47:53.500Z,48.05
2022-11-06T23:49:55.985Z,47.85
2022-11-06T23:51:58.103Z,49.93
2022-11-06T23:54:00.399Z,50.33
2022-11-06T23:56:07.018Z,48.67
2022-11-06T23:58:09.118Z,48.25
